CPZ3 weather

Trenton / Mountain View Airport
Prince Edward County, Ontario, Canada

Public forecast

Using degrees Celsius for public forecast. Weather courtesy of forecast.io.

METAR (pilot weather report)

Closest report is CFB Trenton, 8.7 nm (16.1 km) WNW. Retrieved 2019/04/22 19:00 UTC (36 minutes ago):

CYTR 221900Z 21010KT 15SM FEW030 FEW120 14/08 A3019 RMK SC1AC1 SLP227

TAF (pilot weather forecast)

Closest forecast is CFB Trenton, 8.7 nm (16.1 km) WNW. Retrieved 2019/04/22 18:33 UTC (1 hour ago):

TAF CYTR 221730Z 2218/2318 20008KT P6SM FEW030 SCT120 SCT200 BECMG 2222/2224 VRB03KT FM230500 VRB03KT 6SM BR SKC PROB30 2305/2311 1/2SM FG FM231400 10008KT P6SM FEW060 BKN140 FM231700 12008KT P6SM BKN060 OVC140 RMK NXT FCST BY 230000Z